createdAt,value
2023-05-08T00:00:41.449Z,42.40
2023-05-08T00:03:09.068Z,42.34
2023-05-08T00:05:37.289Z,42.85
2023-05-08T00:08:05.574Z,42.57
2023-05-08T00:10:32.612Z,42.74
2023-05-08T00:13:00.114Z,43.03
2023-05-08T00:15:27.105Z,42.75
2023-05-08T00:17:55.190Z,42.60
2023-05-08T00:20:22.891Z,42.97
2023-05-08T00:22:49.905Z,43.10
2023-05-08T00:25:16.968Z,42.60
2023-05-08T00:27:43.896Z,42.57
2023-05-08T00:30:11.904Z,42.70
2023-05-08T00:32:39.312Z,42.42
2023-05-08T00:35:06.994Z,42.04
2023-05-08T00:37:33.942Z,42.42
2023-05-08T00:40:01.116Z,42.51
2023-05-08T00:42:28.136Z,42.99
2023-05-08T00:44:55.084Z,42.57
2023-05-08T00:47:23.092Z,42.78
2023-05-08T00:49:50.203Z,42.94
2023-05-08T00:52:17.463Z,42.59
2023-05-08T00:54:44.510Z,42.49
2023-05-08T00:57:11.763Z,42.40
2023-05-08T00:59:41.059Z,42.70
2023-05-08T01:02:08.327Z,42.22
2023-05-08T01:04:35.360Z,42.32
2023-05-08T01:07:03.138Z,42.49
2023-05-08T01:09:30.485Z,43.10
2023-05-08T01:12:04.099Z,43.43
2023-05-08T01:14:33.902Z,43.31
2023-05-08T01:17:11.710Z,43.01
2023-05-08T01:19:38.645Z,42.91
2023-05-08T01:22:18.391Z,43.10
2023-05-08T01:24:48.536Z,43.06
2023-05-08T01:27:30.000Z,43.01
2023-05-08T01:30:27.466Z,43.09
2023-05-08T01:33:02.573Z,43.36
2023-05-08T01:35:35.910Z,43.67
2023-05-08T01:38:22.710Z,43.81
2023-05-08T01:40:54.366Z,43.29
2023-05-08T01:43:49.062Z,43.36
2023-05-08T01:46:26.404Z,43.30
2023-05-08T01:49:00.611Z,43.49
2023-05-08T01:51:28.749Z,43.62
2023-05-08T01:53:57.020Z,43.62
2023-05-08T01:56:24.184Z,43.59
2023-05-08T01:58:52.348Z,43.51
2023-05-08T02:01:21.999Z,43.75
2023-05-08T02:03:49.686Z,43.55
2023-05-08T02:06:18.613Z,43.33
2023-05-08T02:08:46.474Z,43.27
2023-05-08T02:11:14.119Z,43.35
2023-05-08T02:13:41.115Z,43.74
2023-05-08T02:16:08.765Z,43.19
2023-05-08T02:18:36.333Z,43.46
2023-05-08T02:21:03.867Z,43.73
2023-05-08T02:23:31.022Z,43.63
2023-05-08T02:25:58.270Z,43.18
2023-05-08T02:28:25.729Z,43.52
2023-05-08T02:30:52.888Z,43.71
2023-05-08T02:33:20.344Z,43.52
2023-05-08T02:35:47.589Z,43.97
2023-05-08T02:38:14.638Z,43.70
2023-05-08T02:40:45.679Z,43.36
2023-05-08T02:43:13.035Z,43.74
2023-05-08T02:45:51.988Z,43.47
2023-05-08T02:48:24.859Z,43.60
2023-05-08T02:50:58.861Z,43.52
2023-05-08T02:53:46.920Z,43.30
2023-05-08T02:56:41.285Z,43.64
2023-05-08T02:59:20.220Z,43.42
2023-05-08T03:02:00.989Z,43.63
2023-05-08T03:04:31.748Z,43.64
2023-05-08T03:06:58.765Z,43.65
2023-05-08T03:09:30.022Z,44.06
2023-05-08T03:12:06.183Z,43.72
2023-05-08T03:14:36.912Z,43.66
2023-05-08T03:17:05.799Z,43.73
2023-05-08T03:19:36.968Z,44.40
2023-05-08T03:22:05.833Z,44.05
2023-05-08T03:24:36.472Z,44.03
2023-05-08T03:27:03.722Z,44.02
2023-05-08T03:29:32.990Z,44.15
2023-05-08T03:32:00.526Z,44.31
2023-05-08T03:34:28.451Z,44.64
2023-05-08T03:36:55.805Z,44.62
2023-05-08T03:39:24.079Z,44.71
2023-05-08T03:41:51.746Z,45.12
2023-05-08T03:44:18.688Z,45.10
2023-05-08T03:46:45.851Z,45.15
2023-05-08T03:49:12.989Z,44.86
2023-05-08T03:51:40.141Z,44.62
2023-05-08T03:54:07.910Z,44.64
2023-05-08T03:56:35.066Z,44.39
2023-05-08T03:59:06.924Z,44.84
2023-05-08T04:01:41.679Z,44.58
2023-05-08T04:04:11.827Z,44.30
2023-05-08T04:06:54.387Z,44.76
2023-05-08T04:09:38.945Z,44.22
2023-05-08T04:12:21.563Z,44.48
2023-05-08T04:14:54.134Z,44.06
2023-05-08T04:17:36.372Z,43.97
2023-05-08T04:20:04.211Z,44.57
2023-05-08T04:22:32.698Z,44.28
2023-05-08T04:25:02.711Z,44.40
2023-05-08T04:27:30.175Z,44.50
2023-05-08T04:29:57.424Z,44.77
2023-05-08T04:32:24.711Z,44.95
2023-05-08T04:34:52.442Z,45.09
2023-05-08T04:37:26.661Z,45.22
2023-05-08T04:39:54.322Z,45.11
2023-05-08T04:42:21.777Z,45.22
2023-05-08T04:44:49.146Z,45.33
2023-05-08T04:47:16.217Z,45.24
2023-05-08T04:49:43.435Z,45.34
2023-05-08T04:52:10.473Z,45.61
2023-05-08T04:54:37.648Z,45.63
2023-05-08T04:57:06.935Z,45.07
2023-05-08T04:59:34.295Z,45.25
2023-05-08T05:02:02.345Z,45.60
2023-05-08T05:04:29.935Z,45.80
2023-05-08T05:06:57.188Z,45.65
2023-05-08T05:09:25.479Z,45.18
2023-05-08T05:11:52.500Z,45.35
2023-05-08T05:14:19.650Z,45.44
2023-05-08T05:16:46.904Z,45.69
2023-05-08T05:19:13.951Z,45.19
2023-05-08T05:21:41.412Z,45.08
2023-05-08T05:24:08.558Z,44.80
2023-05-08T05:26:37.654Z,44.75
2023-05-08T05:29:04.817Z,44.57
2023-05-08T05:31:32.296Z,44.75
2023-05-08T05:33:59.425Z,44.69
2023-05-08T05:36:26.766Z,44.61
2023-05-08T05:38:54.328Z,44.30
2023-05-08T05:41:22.093Z,44.19
2023-05-08T05:43:49.145Z,43.77
2023-05-08T05:46:16.341Z,43.20
2023-05-08T05:48:43.382Z,43.09
2023-05-08T05:51:11.512Z,43.28
2023-05-08T05:53:38.765Z,43.55
2023-05-08T05:56:06.602Z,42.69
2023-05-08T05:58:33.887Z,42.95
2023-05-08T06:01:01.655Z,43.13
2023-05-08T06:03:30.240Z,43.26
2023-05-08T06:05:58.105Z,43.11
2023-05-08T06:08:26.829Z,42.96
2023-05-08T06:10:56.399Z,42.42
2023-05-08T06:13:24.142Z,42.23
2023-05-08T06:15:55.924Z,42.19
2023-05-08T06:18:23.176Z,41.91
2023-05-08T06:20:56.272Z,42.19
2023-05-08T06:23:23.492Z,41.80
2023-05-08T06:25:50.776Z,42.59
2023-05-08T06:28:18.431Z,41.92
2023-05-08T06:30:45.524Z,41.78
2023-05-08T06:33:13.044Z,41.21
2023-05-08T06:35:40.501Z,41.76
2023-05-08T06:38:07.756Z,42.15
2023-05-08T06:40:35.113Z,41.62
2023-05-08T06:43:02.582Z,41.10
2023-05-08T06:45:30.147Z,41.63
2023-05-08T06:47:57.276Z,41.41
2023-05-08T06:50:24.437Z,41.73
2023-05-08T06:52:51.685Z,41.62
2023-05-08T06:55:18.938Z,41.51
2023-05-08T06:57:46.089Z,40.82
2023-05-08T07:00:13.686Z,40.91
2023-05-08T07:02:40.935Z,40.10
2023-05-08T07:05:08.893Z,38.65
2023-05-08T07:07:36.534Z,39.37
2023-05-08T07:10:04.955Z,39.50
2023-05-08T07:12:33.503Z,38.71
2023-05-08T07:15:14.115Z,39.15
2023-05-08T07:17:47.724Z,38.50
2023-05-08T07:20:15.026Z,38.86
2023-05-08T07:22:42.173Z,38.32
2023-05-08T07:25:09.980Z,37.74
2023-05-08T07:27:38.010Z,37.48
2023-05-08T07:30:06.072Z,37.82
2023-05-08T07:32:33.806Z,37.01
2023-05-08T07:35:02.288Z,35.85
2023-05-08T07:37:29.614Z,36.44
2023-05-08T07:39:57.245Z,36.36
2023-05-08T07:42:24.394Z,35.18
2023-05-08T07:44:54.755Z,34.39
2023-05-08T07:47:22.371Z,34.22
2023-05-08T07:49:49.436Z,34.94
2023-05-08T07:52:16.480Z,34.48
2023-05-08T07:54:43.627Z,33.71
2023-05-08T07:57:11.192Z,34.63
2023-05-08T07:59:38.236Z,33.35
2023-05-08T08:02:07.052Z,32.99
2023-05-08T08:04:34.470Z,33.39
2023-05-08T08:07:01.529Z,33.03
2023-05-08T08:09:28.785Z,33.41
2023-05-08T08:11:55.831Z,32.83
2023-05-08T08:14:23.082Z,32.25
2023-05-08T08:16:50.177Z,31.69
2023-05-08T08:19:17.292Z,31.59
2023-05-08T08:21:44.644Z,31.59
2023-05-08T08:24:11.896Z,31.98
2023-05-08T08:26:38.976Z,31.75
2023-05-08T08:29:06.506Z,31.14
2023-05-08T08:31:33.660Z,30.85
2023-05-08T08:34:00.984Z,30.22
2023-05-08T08:36:28.165Z,30.26
2023-05-08T08:38:55.214Z,29.97
2023-05-08T08:41:22.775Z,30.10
2023-05-08T08:43:49.927Z,30.42
2023-05-08T08:46:17.721Z,32.56
2023-05-08T08:48:46.511Z,32.75
2023-05-08T08:51:28.320Z,33.94
2023-05-08T08:54:17.146Z,33.05
2023-05-08T08:56:44.606Z,33.54
2023-05-08T08:59:13.133Z,33.52
2023-05-08T09:01:40.609Z,33.13
2023-05-08T09:04:08.593Z,32.57
2023-05-08T09:08:21.859Z,33.24
2023-05-08T09:10:49.139Z,32.74
2023-05-08T09:13:17.484Z,33.19
2023-05-08T09:15:47.512Z,33.73
2023-05-08T09:18:14.588Z,33.50
2023-05-08T09:20:41.712Z,33.63
2023-05-08T09:23:09.434Z,33.91
2023-05-08T09:25:49.132Z,33.96
2023-05-08T09:28:17.807Z,33.21
2023-05-08T09:30:59.637Z,33.12
2023-05-08T09:33:28.044Z,32.50
2023-05-08T09:35:55.926Z,32.86
2023-05-08T09:38:40.327Z,32.15
2023-05-08T09:41:08.930Z,31.74
2023-05-08T09:43:36.390Z,32.12
2023-05-08T09:46:23.925Z,31.26
2023-05-08T09:48:52.097Z,32.38
2023-05-08T09:51:19.326Z,32.05
2023-05-08T09:53:46.706Z,32.54
2023-05-08T09:56:13.940Z,32.69
2023-05-08T09:58:42.102Z,32.21
2023-05-08T10:01:27.673Z,32.15
2023-05-08T10:03:54.871Z,32.23
2023-05-08T10:06:22.216Z,32.37
2023-05-08T10:08:49.983Z,32.20
2023-05-08T10:11:18.137Z,31.74
2023-05-08T10:13:45.951Z,32.04
2023-05-08T10:16:17.313Z,31.87
2023-05-08T10:18:49.493Z,32.35
2023-05-08T10:21:17.767Z,32.37
2023-05-08T10:23:44.978Z,32.75
2023-05-08T10:26:19.934Z,33.03
2023-05-08T10:28:47.067Z,32.75
2023-05-08T10:31:14.852Z,32.44
2023-05-08T10:33:42.192Z,32.53
2023-05-08T10:36:10.265Z,32.34
2023-05-08T10:38:40.491Z,32.85
2023-05-08T10:41:07.652Z,32.49
2023-05-08T10:43:34.741Z,32.41
2023-05-08T10:46:05.693Z,32.44
2023-05-08T10:48:35.959Z,32.52
2023-05-08T10:51:09.772Z,32.13
2023-05-08T10:53:46.446Z,31.84
2023-05-08T10:56:13.608Z,31.89
2023-05-08T10:58:40.960Z,32.30
2023-05-08T11:01:08.363Z,31.89
2023-05-08T11:03:41.574Z,32.34
2023-05-08T11:06:08.868Z,32.24
2023-05-08T11:08:47.904Z,32.28
2023-05-08T11:11:25.367Z,32.58
2023-05-08T11:13:58.194Z,32.10
2023-05-08T11:16:53.700Z,31.45
2023-05-08T11:19:22.199Z,32.03
2023-05-08T11:22:14.534Z,31.81
2023-05-08T11:25:01.330Z,32.59
2023-05-08T11:27:42.910Z,32.33
2023-05-08T11:30:26.051Z,32.35
2023-05-08T11:33:05.840Z,32.61
2023-05-08T11:35:49.022Z,32.54
2023-05-08T11:38:19.353Z,32.86
2023-05-08T11:40:47.337Z,33.50
2023-05-08T11:43:26.471Z,32.75
2023-05-08T11:45:54.738Z,31.78
2023-05-08T11:48:21.912Z,31.76
2023-05-08T11:50:49.662Z,31.69
2023-05-08T11:53:16.811Z,31.62
2023-05-08T11:55:47.861Z,31.63
2023-05-08T11:58:15.981Z,31.97
2023-05-08T12:00:47.138Z,31.92
2023-05-08T12:03:15.522Z,31.97
2023-05-08T12:05:43.021Z,31.28
2023-05-08T12:08:10.778Z,31.44
2023-05-08T12:10:41.213Z,30.61
2023-05-08T12:13:18.458Z,30.49
2023-05-08T12:15:46.991Z,31.58
2023-05-08T12:18:14.479Z,32.09
2023-05-08T12:20:41.702Z,31.75
2023-05-08T12:23:10.401Z,31.95
2023-05-08T12:25:40.922Z,31.91
2023-05-08T12:28:08.278Z,31.67
2023-05-08T12:30:35.547Z,31.48
2023-05-08T12:33:04.773Z,31.30
2023-05-08T12:35:32.399Z,31.63
2023-05-08T12:38:03.682Z,32.11
2023-05-08T12:40:33.977Z,32.20
2023-05-08T12:43:02.667Z,32.11
2023-05-08T12:45:31.677Z,32.08
2023-05-08T12:48:03.776Z,32.14
2023-05-08T12:50:34.877Z,31.90
2023-05-08T12:53:06.608Z,31.69
2023-05-08T12:55:34.915Z,32.06
2023-05-08T12:58:16.030Z,32.74
2023-05-08T13:00:45.097Z,32.24
2023-05-08T13:03:14.133Z,32.36
2023-05-08T13:05:45.851Z,31.46
2023-05-08T13:08:13.003Z,32.17
2023-05-08T13:10:53.568Z,31.59
2023-05-08T13:13:24.179Z,31.27
2023-05-08T13:15:51.919Z,31.05
2023-05-08T13:18:19.732Z,31.43
2023-05-08T13:20:47.910Z,32.38
2023-05-08T13:23:15.169Z,32.12
2023-05-08T13:25:42.322Z,32.20
2023-05-08T13:28:09.889Z,31.30
2023-05-08T13:30:37.235Z,31.46
2023-05-08T13:33:04.909Z,30.32
2023-05-08T13:35:33.134Z,30.22
2023-05-08T13:38:00.640Z,30.73
2023-05-08T13:40:28.127Z,31.23
2023-05-08T13:42:55.382Z,30.81
2023-05-08T13:45:22.822Z,31.01
2023-05-08T13:47:51.368Z,29.66
2023-05-08T13:50:20.091Z,30.17
2023-05-08T13:52:47.349Z,30.10
2023-05-08T13:55:14.845Z,29.19
2023-05-08T13:57:42.161Z,29.88
2023-05-08T14:00:10.055Z,29.89
2023-05-08T14:02:37.943Z,29.55
2023-05-08T14:05:08.226Z,30.03
2023-05-08T14:07:36.207Z,30.22
2023-05-08T14:10:03.655Z,29.69
2023-05-08T14:12:31.120Z,29.28
2023-05-08T14:14:58.591Z,29.75
2023-05-08T14:17:25.861Z,29.95
2023-05-08T14:19:53.086Z,29.02
2023-05-08T14:22:20.449Z,29.29
2023-05-08T14:24:47.599Z,29.48
2023-05-08T14:27:14.861Z,29.32
2023-05-08T14:29:42.103Z,29.65
2023-05-08T14:32:11.206Z,29.86
2023-05-08T14:34:38.359Z,29.56
2023-05-08T14:37:05.510Z,29.49
2023-05-08T14:39:32.662Z,29.60
2023-05-08T14:42:21.346Z,29.28
2023-05-08T14:44:49.212Z,29.07
2023-05-08T14:47:16.550Z,29.52
2023-05-08T14:49:43.800Z,29.94
2023-05-08T14:52:10.955Z,30.17
2023-05-08T14:54:38.283Z,30.05
2023-05-08T14:57:05.787Z,29.50
2023-05-08T14:59:32.931Z,29.38
2023-05-08T15:02:01.357Z,29.31
2023-05-08T15:04:28.567Z,29.50
2023-05-08T15:06:56.014Z,30.27
2023-05-08T15:09:23.275Z,30.06
2023-05-08T15:11:50.368Z,30.13
2023-05-08T15:14:17.442Z,30.72
2023-05-08T15:16:44.589Z,30.79
2023-05-08T15:19:11.889Z,30.77
2023-05-08T15:21:39.065Z,30.70
2023-05-08T15:24:06.750Z,31.18
2023-05-08T15:26:33.951Z,31.62
2023-05-08T15:29:01.220Z,31.62
2023-05-08T15:31:28.534Z,31.96
2023-05-08T15:33:55.842Z,32.50
2023-05-08T15:36:22.975Z,32.04
2023-05-08T15:38:50.333Z,31.91
2023-05-08T15:41:17.587Z,31.50
2023-05-08T15:43:45.591Z,31.36
2023-05-08T15:46:12.942Z,30.89
2023-05-08T15:48:40.171Z,31.66
2023-05-08T15:51:07.529Z,31.72
2023-05-08T15:53:35.603Z,31.26
2023-05-08T15:56:05.826Z,31.47
2023-05-08T15:58:32.979Z,32.06
2023-05-08T16:01:00.209Z,31.68
2023-05-08T16:03:27.668Z,31.54
2023-05-08T16:05:54.949Z,31.17
2023-05-08T16:08:23.125Z,31.27
2023-05-08T16:10:50.292Z,31.53
2023-05-08T16:13:17.473Z,31.73
2023-05-08T16:15:44.830Z,31.35
2023-05-08T16:18:12.103Z,31.12
2023-05-08T16:20:40.706Z,31.09
2023-05-08T16:23:08.218Z,31.46
2023-05-08T16:25:35.552Z,32.34
2023-05-08T16:28:02.805Z,31.89
2023-05-08T16:30:30.070Z,31.86
2023-05-08T16:32:57.259Z,32.70
2023-05-08T16:35:24.475Z,31.64
2023-05-08T16:37:51.823Z,32.42
2023-05-08T16:40:19.108Z,32.75
2023-05-08T16:42:46.541Z,32.33
2023-05-08T16:45:14.026Z,32.30
2023-05-08T16:47:41.461Z,32.36
2023-05-08T16:50:09.316Z,32.33
2023-05-08T16:52:36.478Z,32.85
2023-05-08T16:55:03.880Z,33.37
2023-05-08T16:57:31.194Z,32.87
2023-05-08T16:59:58.344Z,32.74
2023-05-08T17:02:25.841Z,33.13
2023-05-08T17:04:53.056Z,33.45
2023-05-08T17:07:20.234Z,33.77
2023-05-08T17:09:53.013Z,33.64
2023-05-08T17:12:20.165Z,33.76
2023-05-08T17:14:47.812Z,33.78
2023-05-08T17:17:14.963Z,33.54
2023-05-08T17:19:44.898Z,33.54
2023-05-08T17:22:13.264Z,34.08
2023-05-08T17:24:40.615Z,34.09
2023-05-08T17:27:08.170Z,34.08
2023-05-08T17:29:35.749Z,34.14
2023-05-08T17:32:02.996Z,33.96
2023-05-08T17:34:30.382Z,34.00
2023-05-08T17:36:57.616Z,34.19
2023-05-08T17:39:24.773Z,34.43
2023-05-08T17:41:52.324Z,34.69
2023-05-08T17:44:19.421Z,34.74
2023-05-08T17:46:47.654Z,35.01
2023-05-08T17:49:16.385Z,35.11
2023-05-08T17:51:45.133Z,35.07
2023-05-08T17:54:12.288Z,35.27
2023-05-08T17:56:39.500Z,35.18
2023-05-08T17:59:06.692Z,34.86
2023-05-08T18:01:33.881Z,34.72
2023-05-08T18:04:01.101Z,35.07
2023-05-08T18:06:28.265Z,35.40
2023-05-08T18:08:55.717Z,35.22
2023-05-08T18:11:24.626Z,35.36
2023-05-08T18:13:54.833Z,35.35
2023-05-08T18:16:23.176Z,35.72
2023-05-08T18:18:50.500Z,35.77
2023-05-08T18:21:18.339Z,35.94
2023-05-08T18:23:46.925Z,35.54
2023-05-08T18:26:15.220Z,35.38
2023-05-08T18:28:42.554Z,35.69
2023-05-08T18:31:09.986Z,35.45
2023-05-08T18:33:37.482Z,35.14
2023-05-08T18:36:07.353Z,35.33
2023-05-08T18:38:34.880Z,35.30
2023-05-08T18:41:03.431Z,35.73
2023-05-08T18:43:30.903Z,35.80
2023-05-08T18:45:59.412Z,35.85
2023-05-08T18:48:26.964Z,36.11
2023-05-08T18:50:56.143Z,35.89
2023-05-08T18:53:23.293Z,35.84
2023-05-08T18:55:51.187Z,36.08
2023-05-08T18:58:18.419Z,35.91
2023-05-08T19:00:45.719Z,36.11
2023-05-08T19:03:13.020Z,36.38
2023-05-08T19:05:43.665Z,36.47
2023-05-08T19:08:10.921Z,37.14
2023-05-08T19:10:38.175Z,37.05
2023-05-08T19:13:05.739Z,37.01
2023-05-08T19:15:33.088Z,37.10
2023-05-08T19:18:01.624Z,36.95
2023-05-08T19:20:29.039Z,37.07
2023-05-08T19:22:56.287Z,37.07
2023-05-08T19:25:23.609Z,37.16
2023-05-08T19:27:50.899Z,37.41
2023-05-08T19:30:18.051Z,38.17
2023-05-08T19:32:45.199Z,38.13
2023-05-08T19:35:12.358Z,37.98
2023-05-08T19:37:39.480Z,37.89
2023-05-08T19:40:07.663Z,37.96
2023-05-08T19:42:34.939Z,38.12
2023-05-08T19:45:02.189Z,38.53
2023-05-08T19:47:29.482Z,39.01
2023-05-08T19:49:56.714Z,39.23
2023-05-08T19:52:23.854Z,38.99
2023-05-08T19:54:51.415Z,38.98
2023-05-08T19:57:18.563Z,39.28
2023-05-08T19:59:45.713Z,39.35
2023-05-08T20:02:12.874Z,39.16
2023-05-08T20:04:57.317Z,38.83
2023-05-08T20:07:27.135Z,38.66
2023-05-08T20:09:54.290Z,38.40
2023-05-08T20:12:21.542Z,38.44
2023-05-08T20:14:49.521Z,38.30
2023-05-08T20:17:16.664Z,38.83
2023-05-08T20:19:43.849Z,38.53
2023-05-08T20:22:11.376Z,38.11
2023-05-08T20:24:38.580Z,38.32
2023-05-08T20:27:05.891Z,38.32
2023-05-08T20:29:33.136Z,38.31
2023-05-08T20:32:00.347Z,38.55
2023-05-08T20:34:27.529Z,38.75
2023-05-08T20:36:56.536Z,38.86
2023-05-08T20:39:23.788Z,39.00
2023-05-08T20:41:50.948Z,39.29
2023-05-08T20:44:19.519Z,39.22
2023-05-08T20:46:46.677Z,39.23
2023-05-08T20:49:14.236Z,39.21
2023-05-08T20:51:41.492Z,39.28
2023-05-08T20:54:08.639Z,39.18
2023-05-08T20:56:38.694Z,39.29
2023-05-08T20:59:05.913Z,39.97
2023-05-08T21:01:33.014Z,40.30
2023-05-08T21:04:00.216Z,40.52
2023-05-08T21:06:27.382Z,40.71
2023-05-08T21:08:54.532Z,40.84
2023-05-08T21:11:22.285Z,41.16
2023-05-08T21:13:49.437Z,41.31
2023-05-08T21:16:17.070Z,41.36
2023-05-08T21:18:44.356Z,41.86
2023-05-08T21:21:18.268Z,41.99
2023-05-08T21:25:40.106Z,42.17
2023-05-08T21:28:07.263Z,42.12
2023-05-08T21:30:34.417Z,41.97
2023-05-08T21:33:01.810Z,42.13
2023-05-08T21:35:29.024Z,42.31
2023-05-08T21:37:56.383Z,42.69
2023-05-08T21:40:23.494Z,43.22
2023-05-08T21:42:50.789Z,43.51
2023-05-08T21:45:17.938Z,43.72
2023-05-08T21:47:45.183Z,44.46
2023-05-08T21:50:12.454Z,44.68
2023-05-08T21:52:39.562Z,44.72
2023-05-08T21:55:08.967Z,44.35
2023-05-08T21:57:36.172Z,44.50
2023-05-08T22:00:05.371Z,44.47
2023-05-08T22:02:32.610Z,43.86
2023-05-08T22:04:59.862Z,44.26
2023-05-08T22:07:27.014Z,44.40
2023-05-08T22:09:54.171Z,44.84
2023-05-08T22:12:21.420Z,44.71
2023-05-08T22:14:48.673Z,44.80
2023-05-08T22:17:15.824Z,44.96
2023-05-08T22:19:42.994Z,45.14
2023-05-08T22:22:10.331Z,45.60
2023-05-08T22:24:37.494Z,45.46
2023-05-08T22:27:04.737Z,45.25
2023-05-08T22:29:32.196Z,45.41
2023-05-08T22:31:59.402Z,45.74
2023-05-08T22:34:26.712Z,45.89
2023-05-08T22:36:53.863Z,46.18
2023-05-08T22:39:21.533Z,46.14
2023-05-08T22:41:48.783Z,45.86
2023-05-08T22:44:15.926Z,46.12
2023-05-08T22:46:43.145Z,46.39
2023-05-08T22:49:10.533Z,46.51
2023-05-08T22:51:37.683Z,46.68
2023-05-08T22:54:05.366Z,46.64
2023-05-08T22:56:32.602Z,46.73
2023-05-08T22:58:59.757Z,46.96
2023-05-08T23:01:27.083Z,46.98
2023-05-08T23:03:54.691Z,47.19
2023-05-08T23:06:21.820Z,47.03
2023-05-08T23:08:50.499Z,46.75
2023-05-08T23:11:17.661Z,46.98
2023-05-08T23:13:44.916Z,47.18
2023-05-08T23:16:12.277Z,47.40
2023-05-08T23:18:39.531Z,47.46
2023-05-08T23:21:07.500Z,47.38
2023-05-08T23:23:35.216Z,47.41
2023-05-08T23:26:05.255Z,47.54
2023-05-08T23:28:36.127Z,47.85
2023-05-08T23:31:03.594Z,47.96
2023-05-08T23:33:31.031Z,47.74
2023-05-08T23:35:58.597Z,47.58
2023-05-08T23:38:25.976Z,47.65
2023-05-08T23:40:53.100Z,47.37
2023-05-08T23:43:20.249Z,47.64
2023-05-08T23:45:47.539Z,47.97
2023-05-08T23:48:14.761Z,48.24
2023-05-08T23:50:42.218Z,48.02
2023-05-08T23:53:09.368Z,48.14
2023-05-08T23:55:39.486Z,48.09
2023-05-08T23:58:06.632Z,48.02
